createdAt,value
2023-04-02T00:01:26.609Z,94344.06
2023-04-02T00:11:33.154Z,94352.84
2023-04-02T00:14:02.581Z,94346.84
2023-04-02T00:16:30.646Z,94343.41
2023-04-02T00:19:05.342Z,94345.03
2023-04-02T00:21:36.184Z,94342.59
2023-04-02T00:24:14.902Z,94346.66
2023-04-02T00:26:46.685Z,94346.66
2023-04-02T00:29:16.114Z,94347.50
2023-04-02T00:31:46.604Z,94344.88
2023-04-02T00:34:20.794Z,94350.91
2023-04-02T00:36:50.290Z,94352.72
2023-04-02T00:39:24.595Z,94353.50
2023-04-02T00:41:58.697Z,94351.91
2023-04-02T00:44:32.709Z,94351.72
2023-04-02T00:47:04.728Z,94342.28
2023-04-02T00:49:37.104Z,94355.31
2023-04-02T00:52:07.379Z,94358.72
2023-04-02T00:54:41.078Z,94354.31
2023-04-02T00:57:17.930Z,94356.13
2023-04-02T00:59:55.004Z,94357.94
2023-04-02T01:02:29.545Z,94357.13
2023-04-02T01:04:59.192Z,94356.13
2023-04-02T01:07:54.709Z,94363.16
2023-04-02T01:10:42.871Z,94363.31
2023-04-02T01:13:24.330Z,94359.91
2023-04-02T01:15:58.981Z,94358.09
2023-04-02T01:18:50.335Z,94365.91
2023-04-02T01:21:32.382Z,94362.50
2023-04-02T01:24:05.185Z,94367.72
2023-04-02T01:26:45.732Z,94364.31
2023-04-02T01:29:16.526Z,94362.50
2023-04-02T01:31:46.782Z,94364.13
2023-04-02T01:34:16.847Z,94365.13
2023-04-02T01:36:55.051Z,94367.72
2023-04-02T01:39:39.883Z,94372.13
2023-04-02T01:42:15.974Z,94377.19
2023-04-02T01:44:49.346Z,94372.97
2023-04-02T01:47:20.020Z,94370.34
2023-04-02T01:49:48.558Z,94375.72
2023-04-02T01:52:19.548Z,94374.75
2023-04-02T01:54:48.784Z,94380.78
2023-04-02T01:57:17.486Z,94374.75
2023-04-02T01:59:47.019Z,94379.97
2023-04-02T02:02:15.272Z,94384.19
2023-04-02T02:04:43.087Z,94392.03
2023-04-02T02:07:15.818Z,94387.63
2023-04-02T02:09:44.544Z,94387.63
2023-04-02T02:12:15.020Z,94387.63
2023-04-02T02:14:49.714Z,94394.47
2023-04-02T02:17:21.457Z,94403.09
2023-04-02T02:19:52.967Z,94396.91
2023-04-02T02:22:28.334Z,94397.09
2023-04-02T02:24:57.176Z,94403.09
2023-04-02T02:27:48.001Z,94410.94
2023-04-02T02:30:21.087Z,94409.31
2023-04-02T02:32:56.376Z,94410.16
2023-04-02T02:35:29.785Z,94415.53
2023-04-02T02:38:02.583Z,94411.13
2023-04-02T02:40:37.677Z,94415.53
2023-04-02T02:43:11.364Z,94424.16
2023-04-02T02:45:42.466Z,94424.34
2023-04-02T02:48:14.898Z,94424.34
2023-04-02T02:50:43.664Z,94433.97
2023-04-02T02:53:18.319Z,94425.31
2023-04-02T02:55:46.729Z,94425.31
2023-04-02T02:58:19.313Z,94427.94
2023-04-02T03:00:49.158Z,94431.53
2023-04-02T03:03:21.834Z,94429.72
2023-04-02T03:05:53.748Z,94434.16
2023-04-02T03:08:28.481Z,94438.53
2023-04-02T03:11:02.049Z,94446.38
2023-04-02T03:13:35.278Z,94443.75
2023-04-02T03:16:12.332Z,94449.94
2023-04-02T03:18:46.339Z,94445.72
2023-04-02T03:21:26.289Z,94450.78
2023-04-02T03:23:58.488Z,94449.16
2023-04-02T03:26:32.709Z,94451.78
2023-04-02T03:29:04.205Z,94455.19
2023-04-02T03:31:38.903Z,94461.22
2023-04-02T03:34:13.793Z,94457.78
2023-04-02T03:36:48.872Z,94464.66
2023-04-02T03:39:22.505Z,94461.03
2023-04-02T03:41:53.884Z,94464.47
2023-04-02T03:44:27.101Z,94466.25
2023-04-02T03:46:59.121Z,94465.28
2023-04-02T03:49:32.705Z,94468.72
2023-04-02T03:52:04.926Z,94473.94
2023-04-02T03:54:33.218Z,94474.91
2023-04-02T03:57:01.894Z,94484.38
2023-04-02T03:59:38.145Z,94480.00
2023-04-02T04:02:17.530Z,94483.56
2023-04-02T04:04:47.360Z,94493.03
2023-04-02T04:07:22.699Z,94490.44
2023-04-02T04:09:53.502Z,94491.22
2023-04-02T04:12:31.482Z,94492.06
2023-04-02T04:15:05.525Z,94492.06
2023-04-02T04:17:51.567Z,94485.88
2023-04-02T04:20:23.886Z,94492.06
2023-04-02T04:22:55.796Z,94498.09
2023-04-02T04:25:29.572Z,94500.69
2023-04-02T04:28:05.891Z,94497.09
2023-04-02T04:30:42.265Z,94504.13
2023-04-02T04:33:23.107Z,94510.16
2023-04-02T04:35:55.269Z,94517.00
2023-04-02T04:38:32.912Z,94515.38
2023-04-02T04:41:05.670Z,94524.03
2023-04-02T04:43:46.461Z,94519.81
2023-04-02T04:46:19.248Z,94523.22
2023-04-02T04:48:55.247Z,94524.03
2023-04-02T04:51:26.355Z,94521.41
2023-04-02T04:53:56.193Z,94516.38
2023-04-02T04:56:27.317Z,94525.81
2023-04-02T04:59:00.297Z,94528.44
2023-04-02T05:01:34.590Z,94525.81
2023-04-02T05:04:11.562Z,94531.84
2023-04-02T05:06:44.004Z,94534.47
2023-04-02T05:09:18.807Z,94538.88
2023-04-02T05:11:50.106Z,94542.13
2023-04-02T05:14:25.686Z,94542.13
2023-04-02T05:17:00.455Z,94558.63
2023-04-02T05:19:38.066Z,94558.63
2023-04-02T05:22:16.873Z,94562.06
2023-04-02T05:24:52.109Z,94562.06
2023-04-02T05:27:32.912Z,94570.72
2023-04-02T05:30:08.192Z,94570.72
2023-04-02T05:32:38.806Z,94577.72
2023-04-02T05:35:15.415Z,94580.31
2023-04-02T05:37:43.604Z,94578.53
2023-04-02T05:40:16.407Z,94588.16
2023-04-02T05:42:48.952Z,94586.38
2023-04-02T05:45:24.180Z,94585.53
2023-04-02T05:47:57.217Z,94591.59
2023-04-02T05:50:30.448Z,94597.63
2023-04-02T05:53:04.591Z,94602.19
2023-04-02T05:55:42.807Z,94604.78
2023-04-02T06:00:59.803Z,94602.19
2023-04-02T06:07:52.201Z,94612.63
2023-04-02T06:11:30.754Z,94614.09
2023-04-02T06:36:53.571Z,94635.13
2023-04-02T06:54:26.795Z,94654.72
2023-04-02T07:05:08.704Z,94663.66
2023-04-02T07:08:20.695Z,94672.47
2023-04-02T07:30:25.719Z,94696.13
2023-04-02T07:44:37.787Z,94712.63
2023-04-02T08:13:15.202Z,94749.06
2023-04-02T08:16:20.404Z,94753.94
2023-04-02T08:18:48.434Z,94756.50
2023-04-02T08:21:16.759Z,94758.59
2023-04-02T08:23:44.535Z,94760.81
2023-04-02T08:26:18.757Z,94758.22
2023-04-02T08:28:46.510Z,94764.53
2023-04-02T08:31:14.183Z,94755.09
2023-04-02T08:33:43.108Z,94763.88
2023-04-02T08:36:17.123Z,94766.63
2023-04-02T08:38:44.873Z,94764.97
2023-04-02T08:41:21.532Z,94761.50
2023-04-02T08:44:10.036Z,94758.81
2023-04-02T08:46:44.488Z,94769.22
2023-04-02T08:49:17.766Z,94771.38
2023-04-02T08:51:47.022Z,94773.56
2023-04-02T08:54:22.198Z,94777.16
2023-04-02T08:56:56.304Z,94778.72
2023-04-02T08:59:32.755Z,94776.38
2023-04-02T09:02:06.981Z,94779.50
2023-04-02T09:04:36.906Z,94780.25
2023-04-02T09:07:04.970Z,94778.81
2023-04-02T09:09:38.461Z,94783.25
2023-04-02T09:12:15.436Z,94789.94
2023-04-02T09:14:45.749Z,94793.06
2023-04-02T09:17:19.136Z,94797.16
2023-04-02T09:19:55.431Z,94788.19
2023-04-02T09:22:25.249Z,94790.63
2023-04-02T09:24:54.026Z,94795.84
2023-04-02T09:27:23.957Z,94800.13
2023-04-02T09:29:54.953Z,94800.94
2023-04-02T09:32:40.800Z,94800.78
2023-04-02T09:35:24.798Z,94806.00
2023-04-02T09:38:22.384Z,94812.03
2023-04-02T09:40:52.018Z,94809.44
2023-04-02T09:43:21.479Z,94816.25
2023-04-02T09:45:58.928Z,94817.09
2023-04-02T09:48:30.970Z,94826.72
2023-04-02T09:51:12.480Z,94810.22
2023-04-02T09:53:42.573Z,94807.59
2023-04-02T09:56:13.830Z,94817.09
2023-04-02T09:58:44.043Z,94814.47
2023-04-02T10:01:29.932Z,94823.13
2023-04-02T10:03:59.261Z,94830.97
2023-04-02T10:06:29.962Z,94826.53
2023-04-02T10:08:58.318Z,94823.78
2023-04-02T10:11:36.442Z,94829.16
2023-04-02T10:14:16.831Z,94830.81
2023-04-02T10:16:48.646Z,94827.22
2023-04-02T10:19:23.725Z,94828.03
2023-04-02T10:21:54.887Z,94825.41
2023-04-02T10:24:22.585Z,94828.03
2023-04-02T10:26:59.022Z,94830.63
2023-04-02T10:29:45.643Z,94828.84
2023-04-02T10:32:17.738Z,94828.03
2023-04-02T10:34:50.661Z,94824.44
2023-04-02T10:37:47.947Z,94825.41
2023-04-02T10:40:22.068Z,94827.06
2023-04-02T10:42:55.113Z,94827.88
2023-04-02T10:45:37.277Z,94830.50
2023-04-02T10:48:15.651Z,94832.28
2023-04-02T10:50:51.740Z,94830.50
2023-04-02T10:53:23.088Z,94832.28
2023-04-02T10:55:54.958Z,94828.84
2023-04-02T10:58:26.283Z,94840.94
2023-04-02T11:00:59.397Z,94838.47
2023-04-02T11:03:36.594Z,94840.13
2023-04-02T11:06:12.156Z,94844.50
2023-04-02T11:08:43.654Z,94849.56
2023-04-02T11:11:15.759Z,94845.50
2023-04-02T11:13:53.354Z,94845.34
2023-04-02T11:16:21.464Z,94847.13
2023-04-02T11:19:21.422Z,94848.91
2023-04-02T11:21:58.548Z,94848.13
2023-04-02T11:24:39.644Z,94856.59
2023-04-02T11:27:16.086Z,94856.59
2023-04-02T11:29:45.566Z,94850.56
2023-04-02T11:32:42.398Z,94860.00
2023-04-02T11:35:27.435Z,94857.41
2023-04-02T11:37:58.865Z,94865.25
2023-04-02T11:40:49.312Z,94870.31
2023-04-02T11:43:51.931Z,94868.50
2023-04-02T11:46:48.505Z,94869.34
2023-04-02T11:49:35.802Z,94870.16
2023-04-02T11:52:11.946Z,94870.97
2023-04-02T11:54:40.584Z,94875.22
2023-04-02T11:57:22.712Z,94870.81
2023-04-02T12:00:06.771Z,94877.81
2023-04-02T12:02:42.754Z,94872.59
2023-04-02T12:05:27.683Z,94874.25
2023-04-02T12:08:19.116Z,94873.44
2023-04-02T12:11:00.415Z,94881.25
2023-04-02T12:41:55.575Z,94886.91
2023-04-02T12:44:38.877Z,94888.78
2023-04-02T12:47:08.434Z,94893.19
2023-04-02T12:49:39.595Z,94900.38
2023-04-02T12:52:09.949Z,94897.59
2023-04-02T12:54:45.042Z,94910.31
2023-04-02T12:57:39.174Z,94905.06
2023-04-02T13:00:40.811Z,94903.91
2023-04-02T13:09:45.352Z,94918.03
2023-04-02T13:12:46.571Z,94907.94
2023-04-02T13:19:04.465Z,94919.50
2023-04-02T15:01:44.660Z,94991.59
2023-04-02T15:04:31.926Z,95008.09
2023-04-02T15:07:05.828Z,95002.03
2023-04-02T15:09:38.277Z,95007.25
2023-04-02T15:12:11.735Z,95011.53
2023-04-02T15:14:45.157Z,95018.38
2023-04-02T15:17:13.301Z,95012.34
2023-04-02T15:19:42.271Z,95027.19
2023-04-02T15:22:24.419Z,95020.19
2023-04-02T15:24:59.502Z,95029.66
2023-04-02T15:27:37.875Z,95030.63
2023-04-02T15:30:12.851Z,95034.03
2023-04-02T15:32:42.433Z,95031.44
2023-04-02T15:35:23.067Z,95031.44
2023-04-02T15:38:00.454Z,95033.25
2023-04-02T15:40:41.026Z,95032.41
2023-04-02T15:43:19.819Z,95034.22
2023-04-02T15:45:54.479Z,95039.44
2023-04-02T15:48:37.443Z,95034.22
2023-04-02T15:51:20.306Z,95032.41
2023-04-02T15:53:58.245Z,95040.25
2023-04-02T15:56:35.968Z,95049.88
2023-04-02T15:59:26.742Z,95055.09
2023-04-02T16:02:01.586Z,95048.09
2023-04-02T16:04:51.134Z,95057.72
2023-04-02T16:07:47.999Z,95061.16
2023-04-02T16:10:30.630Z,95065.53
2023-04-02T16:13:01.788Z,95070.78
2023-04-02T16:15:36.170Z,95076.81
2023-04-02T16:18:12.442Z,95074.34
2023-04-02T16:20:44.541Z,95085.59
2023-04-02T16:23:16.419Z,95084.78
2023-04-02T16:25:56.577Z,95091.66
2023-04-02T16:28:28.319Z,95092.50
2023-04-02T16:31:03.311Z,95091.66
2023-04-02T16:33:56.657Z,95091.66
2023-04-02T16:36:34.750Z,95108.16
2023-04-02T16:39:13.817Z,95109.94
2023-04-02T16:41:53.247Z,95110.78
2023-04-02T16:44:32.328Z,95122.16
2023-04-02T16:47:14.788Z,95129.88
2023-04-02T16:49:48.052Z,95123.81
2023-04-02T16:52:29.678Z,95132.31
2023-04-02T16:55:11.770Z,95131.50
2023-04-02T16:57:49.113Z,95147.16
2023-04-02T17:00:24.692Z,95146.34
2023-04-02T17:03:08.552Z,95144.56
2023-04-02T17:05:52.115Z,95143.72
2023-04-02T17:08:23.866Z,95150.59
2023-04-02T17:10:58.333Z,95159.28
2023-04-02T17:13:29.776Z,95160.22
2023-04-02T17:16:05.777Z,95164.50
2023-04-02T17:18:35.813Z,95164.50
2023-04-02T17:21:06.959Z,95165.28
2023-04-02T17:23:55.167Z,95172.47
2023-04-02T17:26:28.865Z,95181.94
2023-04-02T17:28:58.421Z,95188.00
2023-04-02T17:31:30.637Z,95191.41
2023-04-02T17:33:58.548Z,95198.44
2023-04-02T17:36:35.914Z,95201.72
2023-04-02T17:39:16.743Z,95206.13
2023-04-02T17:41:53.156Z,95208.75
2023-04-02T17:44:36.063Z,95219.03
2023-04-02T17:47:16.035Z,95225.91
2023-04-02T17:49:51.561Z,95230.97
2023-04-02T17:52:25.837Z,95237.03
2023-04-02T17:55:03.356Z,95232.63
2023-04-02T17:57:49.890Z,95237.69
2023-04-02T18:00:26.570Z,95242.09
2023-04-02T18:03:12.285Z,95244.69
2023-04-02T18:05:46.982Z,95250.75
2023-04-02T18:08:25.834Z,95259.41
2023-04-02T18:11:05.580Z,95267.38
2023-04-02T18:13:38.459Z,95268.06
2023-04-02T18:16:21.913Z,95276.72
2023-04-02T18:19:10.840Z,95281.81
2023-04-02T18:21:48.941Z,95287.03
2023-04-02T18:24:39.373Z,95288.66
2023-04-02T18:27:23.684Z,95295.69
2023-04-02T18:37:02.186Z,95318.06
2023-04-02T18:39:40.396Z,95319.06
2023-04-02T18:42:17.555Z,95322.63
2023-04-02T18:44:59.428Z,95325.25
2023-04-02T18:47:36.071Z,95333.22
2023-04-02T18:50:15.807Z,95336.66
2023-04-02T18:52:43.845Z,95342.84
2023-04-02T18:55:16.761Z,95347.13
2023-04-02T18:57:47.642Z,95345.47
2023-04-02T19:00:26.575Z,95347.25
2023-04-02T19:03:01.055Z,95357.69
2023-04-02T19:05:37.718Z,95357.69
2023-04-02T19:08:12.542Z,95375.16
2023-04-02T19:10:44.821Z,95365.53
2023-04-02T19:13:17.366Z,95374.19
2023-04-02T19:15:59.033Z,95368.31
2023-04-02T19:18:35.535Z,95377.75
2023-04-02T19:21:12.274Z,95383.13
2023-04-02T19:23:54.841Z,95382.19
2023-04-02T19:26:28.613Z,95396.19
2023-04-02T19:29:06.693Z,95404.03
2023-04-02T19:31:50.123Z,95404.03
2023-04-02T19:34:26.871Z,95405.69
2023-04-02T19:37:00.482Z,95411.03
2023-04-02T19:40:04.522Z,95420.69
2023-04-02T19:42:54.181Z,95426.72
2023-04-02T19:45:32.652Z,95424.09
2023-04-02T19:48:10.603Z,95427.56
2023-04-02T19:50:38.646Z,95429.34
2023-04-02T19:53:06.365Z,95436.22
2023-04-02T19:55:34.511Z,95433.59
2023-04-02T19:58:17.267Z,95434.56
2023-04-02T20:00:47.242Z,95438.00
2023-04-02T20:03:16.221Z,95439.66
2023-04-02T20:05:43.884Z,95437.03
2023-04-02T20:08:11.538Z,95446.50
2023-04-02T20:10:39.329Z,95448.28
2023-04-02T20:13:07.169Z,95448.44
2023-04-02T20:15:36.102Z,95448.44
2023-04-02T20:18:03.923Z,95455.19
2023-04-02T20:20:33.025Z,95464.28
2023-04-02T20:23:00.730Z,95484.09
2023-04-02T20:25:28.334Z,95478.19
2023-04-02T20:27:56.061Z,95481.53
2023-04-02T20:30:23.844Z,95491.03
2023-04-02T20:32:51.588Z,95494.19
2023-04-02T20:35:19.268Z,95495.84
2023-04-02T20:37:48.176Z,95505.06
2023-04-02T20:40:15.964Z,95498.19
2023-04-02T20:42:43.574Z,95502.69
2023-04-02T20:45:11.824Z,95510.13
2023-04-02T20:47:39.643Z,95510.13
2023-04-02T20:50:08.485Z,95513.72
2023-04-02T20:52:36.977Z,95520.03
2023-04-02T20:55:07.228Z,95527.16
2023-04-02T20:57:34.992Z,95527.41
2023-04-02T21:00:05.787Z,95530.16
2023-04-02T21:02:33.425Z,95536.75
2023-04-02T21:05:01.150Z,95542.09
2023-04-02T21:07:29.174Z,95550.88
2023-04-02T21:09:57.163Z,95550.06
2023-04-02T21:12:26.158Z,95549.94
2023-04-02T21:14:57.273Z,95554.56
2023-04-02T21:17:25.792Z,95556.91
2023-04-02T21:19:53.424Z,95554.44
2023-04-02T21:22:21.062Z,95557.75
2023-04-02T21:24:48.762Z,95562.69
2023-04-02T21:27:16.755Z,95561.84
2023-04-02T21:29:45.741Z,95558.41
2023-04-02T21:32:21.224Z,95565.28
2023-04-02T21:34:49.530Z,95575.84
2023-04-02T21:37:17.122Z,95577.06
2023-04-02T21:39:44.720Z,95578.56
2023-04-02T21:42:13.810Z,95576.78
2023-04-02T21:44:41.451Z,95579.53
2023-04-02T21:47:10.672Z,95581.44
2023-04-02T21:49:38.325Z,95582.28
2023-04-02T21:52:06.162Z,95582.28
2023-04-02T21:54:33.803Z,95589.25
2023-04-02T21:57:01.431Z,95584.19
2023-04-02T21:59:29.061Z,95597.34
2023-04-02T22:01:56.822Z,95595.13
2023-04-02T22:04:28.427Z,95597.63
2023-04-02T22:06:56.145Z,95600.47
2023-04-02T22:09:26.140Z,95600.34
2023-04-02T22:11:55.553Z,95602.25
2023-04-02T22:14:23.410Z,95599.34
2023-04-02T22:16:51.829Z,95609.22
2023-04-02T22:19:19.688Z,95610.75
2023-04-02T22:21:48.708Z,95615.50
2023-04-02T22:24:19.193Z,95618.97
2023-04-02T22:26:47.106Z,95625.81
2023-04-02T22:29:15.084Z,95631.00
2023-04-02T22:31:42.730Z,95626.50
2023-04-02T22:34:10.449Z,95630.75
2023-04-02T22:36:38.106Z,95627.47
2023-04-02T22:39:10.336Z,95630.75
2023-04-02T22:41:38.502Z,95633.91
2023-04-02T22:44:06.635Z,95629.94
2023-04-02T22:46:34.660Z,95630.91
2023-04-02T22:49:02.539Z,95630.47
2023-04-02T22:51:30.776Z,95626.47
2023-04-02T22:53:58.579Z,95623.88
2023-04-02T22:56:31.814Z,95621.66
2023-04-02T22:58:59.921Z,95619.81
2023-04-02T23:01:29.625Z,95616.97
2023-04-02T23:03:57.398Z,95625.66
2023-04-02T23:06:26.051Z,95618.00
2023-04-02T23:08:54.005Z,95619.25
2023-04-02T23:11:24.855Z,95617.88
2023-04-02T23:13:55.877Z,95624.38
2023-04-02T23:16:24.371Z,95621.47
2023-04-02T23:18:52.430Z,95619.44
2023-04-02T23:21:21.383Z,95626.84
2023-04-02T23:23:50.459Z,95619.72
2023-04-02T23:26:19.424Z,95627.41
2023-04-02T23:28:47.064Z,95621.25
2023-04-02T23:31:17.837Z,95622.88
2023-04-02T23:33:45.825Z,95622.63
2023-04-02T23:36:16.241Z,95622.47
2023-04-02T23:38:43.992Z,95613.81
2023-04-02T23:41:14.781Z,95615.47
2023-04-02T23:43:42.399Z,95617.09
2023-04-02T23:46:10.425Z,95617.84
2023-04-02T23:48:39.461Z,95618.66
2023-04-02T23:51:07.505Z,95609.88
2023-04-02T23:53:35.578Z,95621.94
2023-04-02T23:56:03.201Z,95608.09
2023-04-02T23:58:30.837Z,95619.22
